Tourist.f.b.terzo — IQAQ — position and weather

sailwx.info

Track history (hours):
 
Tides and Currents Weather Stations Pressure Air Temp Water Temp Dewpoint Dewpoint Depression Visibility Wind Speed Wind Dir Waves Ship Positions

Tourist.f.b.terzo

Last reported at 2015-Jan-28 23:32 UTC. Time now 2015-Jan-29 00:15 UTC.
Position N 40°45' E 013°54'.

Length 53 m; draft 1.8 m.

Type: Ship. MMSI: 247048900.

Date/timePositionNaut miles runAvg speedWind from/ knotsBaromVisibWave heightAir tempDewpointWater temp
2015-Jan-28 23:32N 40°45' E 013°54'0 0.0
2015-Jan-28 15:03N 40°45' E 013°54'0 0.0
2015-Jan-28 14:34N 40°45' E 013°54'0 0.0
2015-Jan-28 13:33N 40°45' E 013°54'0 0.0
2015-Jan-28 12:34N 40°45' E 013°54'0 0.0
2015-Jan-28 11:32N 40°45' E 013°54'2 2.1
2015-Jan-28 10:33N 40°46' E 013°57'8 7.7
2015-Jan-28 09:31N 40°49' E 014°06'0 0.5
2015-Jan-28 08:33N 40°49' E 014°07'5 4.9
2015-Jan-28 07:32N 40°46' E 014°02'6 6.0
2015-Jan-28 06:33N 40°45' E 013°54'7 7.2
2015-Jan-28 05:34N 40°46' E 014°04'3 2.8
2015-Jan-28 04:34N 40°49' E 014°06'8 7.7
2015-Jan-28 03:32N 40°46' E 013°57'3 2.9
2015-Jan-28 02:33N 40°47' E 014°00'6 5.4
2015-Jan-28 01:26N 40°49' E 014°07'5 6.1
2015-Jan-28 00:33N 40°46' E 014°02'5 5.5
2015-Jan-27 23:33N 40°45' E 013°54'0 0.0
2015-Jan-27 16:33N 40°45' E 013°54'0 0.0
2015-Jan-27 15:33N 40°45' E 013°54'0 0.0
2015-Jan-27 14:32N 40°45' E 013°54'0 0.0
2015-Jan-27 13:34N 40°45' E 013°54'0 0.0
2015-Jan-27 12:33N 40°45' E 013°54'0 0.0
2015-Jan-27 11:34N 40°45' E 013°54'0 0.0
2015-Jan-27 10:34N 40°45' E 013°54'5 4.9
2015-Jan-27 09:34N 40°47' E 014°01'6 5.6
2015-Jan-27 08:33N 40°49' E 014°07'0 0.0
2015-Jan-27 07:33N 40°49' E 014°07'5 5.4
2015-Jan-27 06:33N 40°46' E 014°01'3 3.1
2015-Jan-27 05:33N 40°46' E 013°57'8 7.7
2015-Jan-27 04:33N 40°49' E 014°06'5 4.7
2015-Jan-27 03:32N 40°47' E 014°01'5 5.4
2015-Jan-27 02:33N 40°45' E 013°54'7 7.3
2015-Jan-27 01:33N 40°46' E 014°04'1 1.5
2015-Jan-27 00:33N 40°47' E 014°06'8 8.4
2015-Jan-26 23:34N 40°45' E 013°55'0 0.0
2015-Jan-26 13:33N 40°45' E 013°54'0 0.0
2015-Jan-26 12:32N 40°45' E 013°54'0 0.0
2015-Jan-26 11:33N 40°45' E 013°54'0 0.0
2015-Jan-26 10:32N 40°45' E 013°54'6 5.7
2015-Jan-26 09:33N 40°46' E 014°02'5 5.0
2015-Jan-26 08:32N 40°49' E 014°07'5 5.5
2015-Jan-26 07:33N 40°46' E 014°02'5 5.5
2015-Jan-26 06:33N 40°45' E 013°54'9 8.8
2015-Jan-26 05:32N 40°47' E 014°06'1 1.3
2015-Jan-26 04:32N 40°48' E 014°06'7 7.3
2015-Jan-26 03:33N 40°46' E 013°57'2 2.1
2015-Jan-26 02:33N 40°47' E 014°00'5 4.7
2015-Jan-26 01:33N 40°48' E 014°06'2 2.0
2015-Jan-26 00:33N 40°46' E 014°04'7 7.3
2015-Jan-25 23:33N 40°45' E 013°54'0 0.0
2015-Jan-24 09:33N 40°45' E 013°54'5 5.0
2015-Jan-24 08:33N 40°46' E 014°01'5 5.2
2015-Jan-24 07:33N 40°49' E 014°07'6 5.9
2015-Jan-24 06:33N 40°46' E 013°60'2 1.9
2015-Jan-24 05:33N 40°46' E 013°57'8 7.7
2015-Jan-24 04:33N 40°49' E 014°07'4 4.5
2015-Jan-24 03:33N 40°47' E 014°02'5 5.0
2015-Jan-24 02:33N 40°45' E 013°55'8 7.8
2015-Jan-24 01:32N 40°47' E 014°06'0 0.1
2015-Jan-24 00:33N 40°47' E 014°06'8 8.4
2015-Jan-23 23:33N 40°45' E 013°55'0 0.0
2015-Jan-23 11:34N 40°45' E 013°54'0 0.0
2015-Jan-23 10:34N 40°45' E 013°54'4 4.0
2015-Jan-23 09:33N 40°46' E 013°60'7 6.5
2015-Jan-23 08:33N 40°49' E 014°07'0 0.0
2015-Jan-23 07:28N 40°49' E 014°07'5 5.8
2015-Jan-23 06:32N 40°46' E 014°02'5 5.0
2015-Jan-23 05:33N 40°45' E 013°55'9 8.7
2015-Jan-23 04:32N 40°48' E 014°06'3 3.1
2015-Jan-23 03:33N 40°46' E 014°03'7 6.5
2015-Jan-23 02:32N 40°45' E 013°54'8 8.0
2015-Jan-23 01:33N 40°46' E 014°05'1 0.7
2015-Jan-23 00:34N 40°46' E 014°06'8 8.1
2015-Jan-22 23:34N 40°45' E 013°55'0 0.0
2015-Jan-22 13:15N 40°45' E 013°54'0 0.0
2015-Jan-22 12:33N 40°45' E 013°54'0 0.0
2015-Jan-22 11:33N 40°45' E 013°54'0 0.0
2015-Jan-22 10:33N 40°45' E 013°54'4 3.7
2015-Jan-22 09:33N 40°46' E 013°59'7 6.8
2015-Jan-22 08:33N 40°49' E 014°07'4 3.6
2015-Jan-22 07:34N 40°46' E 014°05'8 8.1
2015-Jan-22 06:33N 40°45' E 013°54'8 7.9
2015-Jan-22 05:32N 40°46' E 014°05'3 3.5
2015-Jan-22 04:33N 40°49' E 014°07'7 7.1
2015-Jan-22 03:34N 40°46' E 013°58'3 3.3
2015-Jan-22 02:33N 40°45' E 013°54'8 8.1
2015-Jan-22 01:34N 40°46' E 014°05'0 0.5
2015-Jan-22 00:33N 40°47' E 014°06'8 8.3
2015-Jan-21 23:33N 40°45' E 013°55'0 0.3
2015-Jan-21 22:50N 40°45' E 013°54'0 0.0
2015-Jan-21 22:46N 40°45' E 013°54'0 0.0
2015-Jan-21 11:33N 40°45' E 013°54'0 0.0
2015-Jan-21 10:33N 40°45' E 013°54'5 4.6
2015-Jan-21 09:34N 40°46' E 014°00'6 5.9
2015-Jan-21 08:33N 40°49' E 014°07'2 2.1
2015-Jan-21 07:33N 40°48' E 014°06'8 8.0
2015-Jan-21 06:33N 40°46' E 013°56'4 4.5
2015-Jan-21 05:33N 40°46' E 014°02'5 5.2
2015-Jan-21 04:33N 40°49' E 014°07'7 6.8
2015-Jan-21 03:33N 40°46' E 013°59'2 1.6
2015-Jan-21 02:33N 40°46' E 013°57'8 7.8
2015-Jan-21 01:33N 40°49' E 014°06'4 3.9
2015-Jan-21 00:33N 40°46' E 014°03'6 6.2
2015-Jan-20 23:33N 40°45' E 013°55'0 0.0
2015-Jan-20 13:33N 40°45' E 013°54'0 0.0
2015-Jan-20 12:33N 40°45' E 013°54'0 0.0
2015-Jan-20 11:33N 40°45' E 013°54'1 0.8
2015-Jan-20 10:33N 40°46' E 013°55'8 8.3
2015-Jan-20 09:34N 40°48' E 014°06'2 1.5
2015-Jan-20 08:33N 40°49' E 014°06'5 4.6
2015-Jan-20 07:33N 40°46' E 014°02'6 5.6
2015-Jan-20 06:34N 40°45' E 013°54'9 8.6
2015-Jan-20 05:33N 40°47' E 014°06'1 0.9
2015-Jan-20 04:33N 40°47' E 014°06'8 7.8
2015-Jan-20 03:33N 40°46' E 013°56'3 3.0
2015-Jan-20 02:33N 40°46' E 013°60'6 5.5
2015-Jan-20 01:33N 40°49' E 014°06'3 3.4
2015-Jan-20 00:33N 40°46' E 014°04'7 6.8
2015-Jan-19 23:34N 40°45' E 013°55'0 0.0
2015-Jan-19 14:34N 40°45' E 013°54'0 0.0
2015-Jan-19 13:33N 40°45' E 013°54'0 0.0
2015-Jan-19 12:33N 40°45' E 013°54'0 0.0
2015-Jan-19 11:33N 40°45' E 013°54'0 0.0
2015-Jan-19 10:33N 40°45' E 013°54'5 5.0
2015-Jan-19 09:33N 40°47' E 014°01'6 5.6
2015-Jan-19 08:33N 40°49' E 014°07'4 3.6
2015-Jan-19 07:33N 40°46' E 014°05'4 4.0
2015-Jan-19 06:33N 40°46' E 013°59'0 0.5
2015-Jan-19 05:33N 40°46' E 013°59'7 7.0
2015-Jan-19 04:33N 40°49' E 014°07'5 4.6
2015-Jan-19 03:33N 40°46' E 014°02'6 6.1
2015-Jan-19 02:33N 40°45' E 013°54'9 8.5
2015-Jan-19 01:33N 40°47' E 014°06'1 0.5
2015-Jan-19 00:33N 40°46' E 014°05'7 7.1
2015-Jan-18 23:33N 40°45' E 013°56'  
Track history (hours):
 
Tides and Currents Weather Stations Pressure Air Temp Water Temp Dewpoint Dewpoint Depression Visibility Wind Speed Wind Dir Waves Ship Positions

Tourist.f.b.terzo

Last reported at 2015-Jan-28 23:32 UTC. Time now 2015-Jan-29 00:15 UTC.
Position N 40°45' E 013°54'.

Length 53 m; draft 1.8 m.

Type: Ship. MMSI: 247048900.

Date/timePositionNaut miles runAvg speedWind from/ knotsBaromVisibWave heightAir tempDewpointWater temp
2015-Jan-28 23:32N 40°45' E 013°54'0 0.0
2015-Jan-28 15:03N 40°45' E 013°54'0 0.0
2015-Jan-28 14:34N 40°45' E 013°54'0 0.0
2015-Jan-28 13:33N 40°45' E 013°54'0 0.0
2015-Jan-28 12:34N 40°45' E 013°54'0 0.0
2015-Jan-28 11:32N 40°45' E 013°54'2 2.1
2015-Jan-28 10:33N 40°46' E 013°57'8 7.7
2015-Jan-28 09:31N 40°49' E 014°06'0 0.5
2015-Jan-28 08:33N 40°49' E 014°07'5 4.9
2015-Jan-28 07:32N 40°46' E 014°02'6 6.0
2015-Jan-28 06:33N 40°45' E 013°54'7 7.2
2015-Jan-28 05:34N 40°46' E 014°04'3 2.8
2015-Jan-28 04:34N 40°49' E 014°06'8 7.7
2015-Jan-28 03:32N 40°46' E 013°57'3 2.9
2015-Jan-28 02:33N 40°47' E 014°00'6 5.4
2015-Jan-28 01:26N 40°49' E 014°07'5 6.1
2015-Jan-28 00:33N 40°46' E 014°02'5 5.5
2015-Jan-27 23:33N 40°45' E 013°54'0 0.0
2015-Jan-27 16:33N 40°45' E 013°54'0 0.0
2015-Jan-27 15:33N 40°45' E 013°54'0 0.0
2015-Jan-27 14:32N 40°45' E 013°54'0 0.0
2015-Jan-27 13:34N 40°45' E 013°54'0 0.0
2015-Jan-27 12:33N 40°45' E 013°54'0 0.0
2015-Jan-27 11:34N 40°45' E 013°54'0 0.0
2015-Jan-27 10:34N 40°45' E 013°54'5 4.9
2015-Jan-27 09:34N 40°47' E 014°01'6 5.6
2015-Jan-27 08:33N 40°49' E 014°07'0 0.0
2015-Jan-27 07:33N 40°49' E 014°07'5 5.4
2015-Jan-27 06:33N 40°46' E 014°01'3 3.1
2015-Jan-27 05:33N 40°46' E 013°57'8 7.7
2015-Jan-27 04:33N 40°49' E 014°06'5 4.7
2015-Jan-27 03:32N 40°47' E 014°01'5 5.4
2015-Jan-27 02:33N 40°45' E 013°54'7 7.3
2015-Jan-27 01:33N 40°46' E 014°04'1 1.5
2015-Jan-27 00:33N 40°47' E 014°06'8 8.4
2015-Jan-26 23:34N 40°45' E 013°55'0 0.0
2015-Jan-26 13:33N 40°45' E 013°54'0 0.0
2015-Jan-26 12:32N 40°45' E 013°54'0 0.0
2015-Jan-26 11:33N 40°45' E 013°54'0 0.0
2015-Jan-26 10:32N 40°45' E 013°54'6 5.7
2015-Jan-26 09:33N 40°46' E 014°02'5 5.0
2015-Jan-26 08:32N 40°49' E 014°07'5 5.5
2015-Jan-26 07:33N 40°46' E 014°02'5 5.5
2015-Jan-26 06:33N 40°45' E 013°54'9 8.8
2015-Jan-26 05:32N 40°47' E 014°06'1 1.3
2015-Jan-26 04:32N 40°48' E 014°06'7 7.3
2015-Jan-26 03:33N 40°46' E 013°57'2 2.1
2015-Jan-26 02:33N 40°47' E 014°00'5 4.7
2015-Jan-26 01:33N 40°48' E 014°06'2 2.0
2015-Jan-26 00:33N 40°46' E 014°04'7 7.3
2015-Jan-25 23:33N 40°45' E 013°54'0 0.0
2015-Jan-24 09:33N 40°45' E 013°54'5 5.0
2015-Jan-24 08:33N 40°46' E 014°01'5 5.2
2015-Jan-24 07:33N 40°49' E 014°07'6 5.9
2015-Jan-24 06:33N 40°46' E 013°60'2 1.9
2015-Jan-24 05:33N 40°46' E 013°57'8 7.7
2015-Jan-24 04:33N 40°49' E 014°07'4 4.5
2015-Jan-24 03:33N 40°47' E 014°02'5 5.0
2015-Jan-24 02:33N 40°45' E 013°55'8 7.8
2015-Jan-24 01:32N 40°47' E 014°06'0 0.1
2015-Jan-24 00:33N 40°47' E 014°06'8 8.4
2015-Jan-23 23:33N 40°45' E 013°55'0 0.0
2015-Jan-23 11:34N 40°45' E 013°54'0 0.0
2015-Jan-23 10:34N 40°45' E 013°54'4 4.0
2015-Jan-23 09:33N 40°46' E 013°60'7 6.5
2015-Jan-23 08:33N 40°49' E 014°07'0 0.0
2015-Jan-23 07:28N 40°49' E 014°07'5 5.8
2015-Jan-23 06:32N 40°46' E 014°02'5 5.0
2015-Jan-23 05:33N 40°45' E 013°55'9 8.7
2015-Jan-23 04:32N 40°48' E 014°06'3 3.1
2015-Jan-23 03:33N 40°46' E 014°03'7 6.5
2015-Jan-23 02:32N 40°45' E 013°54'8 8.0
2015-Jan-23 01:33N 40°46' E 014°05'1 0.7
2015-Jan-23 00:34N 40°46' E 014°06'8 8.1
2015-Jan-22 23:34N 40°45' E 013°55'0 0.0
2015-Jan-22 13:15N 40°45' E 013°54'0 0.0
2015-Jan-22 12:33N 40°45' E 013°54'0 0.0
2015-Jan-22 11:33N 40°45' E 013°54'0 0.0
2015-Jan-22 10:33N 40°45' E 013°54'4 3.7
2015-Jan-22 09:33N 40°46' E 013°59'7 6.8
2015-Jan-22 08:33N 40°49' E 014°07'4 3.6
2015-Jan-22 07:34N 40°46' E 014°05'8 8.1
2015-Jan-22 06:33N 40°45' E 013°54'8 7.9
2015-Jan-22 05:32N 40°46' E 014°05'3 3.5
2015-Jan-22 04:33N 40°49' E 014°07'7 7.1
2015-Jan-22 03:34N 40°46' E 013°58'3 3.3
2015-Jan-22 02:33N 40°45' E 013°54'8 8.1
2015-Jan-22 01:34N 40°46' E 014°05'0 0.5
2015-Jan-22 00:33N 40°47' E 014°06'8 8.3
2015-Jan-21 23:33N 40°45' E 013°55'0 0.3
2015-Jan-21 22:50N 40°45' E 013°54'0 0.0
2015-Jan-21 22:46N 40°45' E 013°54'0 0.0
2015-Jan-21 11:33N 40°45' E 013°54'0 0.0
2015-Jan-21 10:33N 40°45' E 013°54'5 4.6
2015-Jan-21 09:34N 40°46' E 014°00'6 5.9
2015-Jan-21 08:33N 40°49' E 014°07'2 2.1
2015-Jan-21 07:33N 40°48' E 014°06'8 8.0
2015-Jan-21 06:33N 40°46' E 013°56'4 4.5
2015-Jan-21 05:33N 40°46' E 014°02'5 5.2
2015-Jan-21 04:33N 40°49' E 014°07'7 6.8
2015-Jan-21 03:33N 40°46' E 013°59'2 1.6
2015-Jan-21 02:33N 40°46' E 013°57'8 7.8
2015-Jan-21 01:33N 40°49' E 014°06'4 3.9
2015-Jan-21 00:33N 40°46' E 014°03'6 6.2
2015-Jan-20 23:33N 40°45' E 013°55'0 0.0
2015-Jan-20 13:33N 40°45' E 013°54'0 0.0
2015-Jan-20 12:33N 40°45' E 013°54'0 0.0
2015-Jan-20 11:33N 40°45' E 013°54'1 0.8
2015-Jan-20 10:33N 40°46' E 013°55'8 8.3
2015-Jan-20 09:34N 40°48' E 014°06'2 1.5
2015-Jan-20 08:33N 40°49' E 014°06'5 4.6
2015-Jan-20 07:33N 40°46' E 014°02'6 5.6
2015-Jan-20 06:34N 40°45' E 013°54'9 8.6
2015-Jan-20 05:33N 40°47' E 014°06'1 0.9
2015-Jan-20 04:33N 40°47' E 014°06'8 7.8
2015-Jan-20 03:33N 40°46' E 013°56'3 3.0
2015-Jan-20 02:33N 40°46' E 013°60'6 5.5
2015-Jan-20 01:33N 40°49' E 014°06'3 3.4
2015-Jan-20 00:33N 40°46' E 014°04'7 6.8
2015-Jan-19 23:34N 40°45' E 013°55'0 0.0
2015-Jan-19 14:34N 40°45' E 013°54'0 0.0
2015-Jan-19 13:33N 40°45' E 013°54'0 0.0
2015-Jan-19 12:33N 40°45' E 013°54'0 0.0
2015-Jan-19 11:33N 40°45' E 013°54'0 0.0
2015-Jan-19 10:33N 40°45' E 013°54'5 5.0
2015-Jan-19 09:33N 40°47' E 014°01'6 5.6
2015-Jan-19 08:33N 40°49' E 014°07'4 3.6
2015-Jan-19 07:33N 40°46' E 014°05'4 4.0
2015-Jan-19 06:33N 40°46' E 013°59'0 0.5
2015-Jan-19 05:33N 40°46' E 013°59'7 7.0
2015-Jan-19 04:33N 40°49' E 014°07'5 4.6
2015-Jan-19 03:33N 40°46' E 014°02'6 6.1
2015-Jan-19 02:33N 40°45' E 013°54'9 8.5
2015-Jan-19 01:33N 40°47' E 014°06'1 0.5
2015-Jan-19 00:33N 40°46' E 014°05'7 7.1
2015-Jan-18 23:33N 40°45' E 013°56'  

Dump ship's entire track history